aviador You're here:

KBFD Decoded Metar

BRADFORD in PA, USA
Report Time2018-04-24 01:53:00
UTC Time2018-04-24 02:45:06
Flight Rules vfr VFR
Wind150° at 06 kt
W.Decomp.*RWY 14: 5.6 kt HW 2.2 kt RCW
RWY 23: 2.2 kt HW 5.6 kt LCW
W.Rank150° ranks 2
Current wind is below 150° avg. (7.0)
Visibility9999 m
Phenomena:N/A
Clouds:N/A
Expected CloudBase > 5,200 ft AGL from Temp-Dew spread
CeilingNone
Temp14°C (ISA +3)
Dew Point01°C (41% RH)
AAT10.0°C
QNH1025 hPa
Density Alt2,195 ft
Elevation2,123 ft
Report Wrong Elevation
Raw Report
KBFD 240153Z AUTO 15006KT 10SM CLR 14/01 A3028 RMK AO2 SLP249
T01390011=

Extra information for KBFD:More info

Metar Taf Metar & Taf Last 4 Metars F.Rules Stats Wind Profile Meteogram Temp Stats Airport Information Weather charts Add Link Nearby VenuesMetar ALERT Operation Metar Decoded Social comments

AIRNAV info for KBFD